sensor_id;sensor_type;location;lat;lon;timestamp;P1;durP1;ratioP1;P2;durP2;ratioP2
24145;SDS011;12308;50.948;4.706;2022-12-04T00:01:03;120.10;;;41.67;;
24145;SDS011;12308;50.948;4.706;2022-12-04T00:03:30;117.03;;;42.35;;
24145;SDS011;12308;50.948;4.706;2022-12-04T00:06:03;119.30;;;40.83;;
24145;SDS011;12308;50.948;4.706;2022-12-04T00:08:36;118.85;;;41.13;;
24145;SDS011;12308;50.948;4.706;2022-12-04T00:11:03;119.40;;;42.95;;
24145;SDS011;12308;50.948;4.706;2022-12-04T00:13:29;119.50;;;41.40;;
24145;SDS011;12308;50.948;4.706;2022-12-04T00:15:56;118.20;;;41.72;;
24145;SDS011;12308;50.948;4.706;2022-12-04T00:18:23;122.82;;;41.25;;
24145;SDS011;12308;50.948;4.706;2022-12-04T00:20:49;114.95;;;40.17;;
24145;SDS011;12308;50.948;4.706;2022-12-04T00:23:14;117.72;;;40.72;;
24145;SDS011;12308;50.948;4.706;2022-12-04T00:25:40;115.25;;;40.85;;
24145;SDS011;12308;50.948;4.706;2022-12-04T00:28:06;113.75;;;40.00;;
24145;SDS011;12308;50.948;4.706;2022-12-04T00:30:32;122.18;;;42.00;;
24145;SDS011;12308;50.948;4.706;2022-12-04T00:32:58;121.22;;;40.97;;
24145;SDS011;12308;50.948;4.706;2022-12-04T00:35:24;122.03;;;42.00;;
24145;SDS011;12308;50.948;4.706;2022-12-04T00:37:50;121.47;;;40.72;;
24145;SDS011;12308;50.948;4.706;2022-12-04T00:40:15;129.60;;;43.17;;
24145;SDS011;12308;50.948;4.706;2022-12-04T00:42:41;130.57;;;43.97;;
24145;SDS011;12308;50.948;4.706;2022-12-04T00:45:06;118.15;;;42.25;;
24145;SDS011;12308;50.948;4.706;2022-12-04T00:47:32;121.65;;;43.72;;
24145;SDS011;12308;50.948;4.706;2022-12-04T00:49:58;115.07;;;41.38;;
24145;SDS011;12308;50.948;4.706;2022-12-04T00:52:23;116.10;;;42.03;;
24145;SDS011;12308;50.948;4.706;2022-12-04T00:54:49;115.10;;;41.92;;
24145;SDS011;12308;50.948;4.706;2022-12-04T00:57:15;123.97;;;42.00;;
24145;SDS011;12308;50.948;4.706;2022-12-04T00:59:40;116.53;;;41.00;;
24145;SDS011;12308;50.948;4.706;2022-12-04T01:02:06;112.57;;;41.78;;
24145;SDS011;12308;50.948;4.706;2022-12-04T01:04:32;120.55;;;43.40;;
24145;SDS011;12308;50.948;4.706;2022-12-04T01:06:57;127.53;;;42.97;;
24145;SDS011;12308;50.948;4.706;2022-12-04T01:09:23;125.70;;;44.67;;
24145;SDS011;12308;50.948;4.706;2022-12-04T01:11:49;117.07;;;43.50;;
24145;SDS011;12308;50.948;4.706;2022-12-04T01:14:14;125.28;;;43.22;;
24145;SDS011;12308;50.948;4.706;2022-12-04T01:16:40;118.72;;;42.45;;
24145;SDS011;12308;50.948;4.706;2022-12-04T01:19:07;116.88;;;41.50;;
24145;SDS011;12308;50.948;4.706;2022-12-04T01:21:34;128.75;;;43.35;;
24145;SDS011;12308;50.948;4.706;2022-12-04T01:24:01;120.57;;;42.40;;
24145;SDS011;12308;50.948;4.706;2022-12-04T01:26:27;118.60;;;44.10;;
24145;SDS011;12308;50.948;4.706;2022-12-04T01:28:53;113.38;;;40.92;;
24145;SDS011;12308;50.948;4.706;2022-12-04T01:31:19;130.02;;;44.42;;
24145;SDS011;12308;50.948;4.706;2022-12-04T01:33:46;120.43;;;41.95;;
24145;SDS011;12308;50.948;4.706;2022-12-04T01:36:13;117.75;;;43.60;;
24145;SDS011;12308;50.948;4.706;2022-12-04T01:38:48;125.00;;;43.15;;
24145;SDS011;12308;50.948;4.706;2022-12-04T01:41:15;130.10;;;44.17;;
24145;SDS011;12308;50.948;4.706;2022-12-04T01:43:44;120.38;;;41.95;;
24145;SDS011;12308;50.948;4.706;2022-12-04T01:46:09;128.40;;;43.97;;
24145;SDS011;12308;50.948;4.706;2022-12-04T01:51:17;121.10;;;42.70;;
24145;SDS011;12308;50.948;4.706;2022-12-04T01:54:00;121.53;;;44.15;;
24145;SDS011;12308;50.948;4.706;2022-12-04T01:56:32;122.15;;;42.40;;
24145;SDS011;12308;50.948;4.706;2022-12-04T01:59:04;135.55;;;44.17;;
24145;SDS011;12308;50.948;4.706;2022-12-04T02:01:33;119.82;;;42.63;;
24145;SDS011;12308;50.948;4.706;2022-12-04T02:04:03;131.02;;;44.28;;
24145;SDS011;12308;50.948;4.706;2022-12-04T02:06:29;124.65;;;42.38;;
24145;SDS011;12308;50.948;4.706;2022-12-04T02:08:55;126.85;;;43.80;;
24145;SDS011;12308;50.948;4.706;2022-12-04T02:22:44;126.90;;;41.33;;
24145;SDS011;12308;50.948;4.706;2022-12-04T02:27:58;115.85;;;39.83;;
24145;SDS011;12308;50.948;4.706;2022-12-04T02:30:34;120.95;;;42.45;;
24145;SDS011;12308;50.948;4.706;2022-12-04T02:35:53;128.70;;;41.78;;
24145;SDS011;12308;50.948;4.706;2022-12-04T02:38:32;119.22;;;41.80;;
24145;SDS011;12308;50.948;4.706;2022-12-04T02:41:05;124.43;;;43.15;;
24145;SDS011;12308;50.948;4.706;2022-12-04T02:43:41;123.43;;;42.33;;
24145;SDS011;12308;50.948;4.706;2022-12-04T02:46:30;115.38;;;42.45;;
24145;SDS011;12308;50.948;4.706;2022-12-04T02:49:01;118.15;;;41.15;;
24145;SDS011;12308;50.948;4.706;2022-12-04T02:51:31;118.15;;;40.95;;
24145;SDS011;12308;50.948;4.706;2022-12-04T02:54:04;113.30;;;41.35;;
24145;SDS011;12308;50.948;4.706;2022-12-04T02:56:36;109.28;;;40.83;;
24145;SDS011;12308;50.948;4.706;2022-12-04T02:59:07;119.82;;;41.95;;
24145;SDS011;12308;50.948;4.706;2022-12-04T03:01:39;111.28;;;41.30;;
24145;SDS011;12308;50.948;4.706;2022-12-04T03:06:38;112.03;;;42.38;;
24145;SDS011;12308;50.948;4.706;2022-12-04T03:09:10;126.80;;;41.78;;
24145;SDS011;12308;50.948;4.706;2022-12-04T03:11:57;121.75;;;41.85;;
24145;SDS011;12308;50.948;4.706;2022-12-04T03:14:31;120.53;;;42.63;;
24145;SDS011;12308;50.948;4.706;2022-12-04T03:17:01;113.57;;;41.00;;
24145;SDS011;12308;50.948;4.706;2022-12-04T03:19:36;120.50;;;43.08;;
24145;SDS011;12308;50.948;4.706;2022-12-04T03:22:08;111.07;;;39.80;;
24145;SDS011;12308;50.948;4.706;2022-12-04T03:24:58;120.13;;;41.83;;
24145;SDS011;12308;50.948;4.706;2022-12-04T03:27:31;117.72;;;41.22;;
24145;SDS011;12308;50.948;4.706;2022-12-04T03:30:11;116.53;;;42.92;;
24145;SDS011;12308;50.948;4.706;2022-12-04T03:35:20;114.68;;;41.85;;
24145;SDS011;12308;50.948;4.706;2022-12-04T03:43:23;114.38;;;41.47;;
24145;SDS011;12308;50.948;4.706;2022-12-04T03:50:57;111.13;;;39.85;;
24145;SDS011;12308;50.948;4.706;2022-12-04T03:58:37;112.47;;;40.03;;
24145;SDS011;12308;50.948;4.706;2022-12-04T04:01:08;121.63;;;42.58;;
24145;SDS011;12308;50.948;4.706;2022-12-04T04:03:37;115.93;;;41.33;;
24145;SDS011;12308;50.948;4.706;2022-12-04T04:06:13;119.75;;;42.80;;
24145;SDS011;12308;50.948;4.706;2022-12-04T04:08:44;114.55;;;40.90;;
24145;SDS011;12308;50.948;4.706;2022-12-04T04:11:15;119.65;;;41.17;;
24145;SDS011;12308;50.948;4.706;2022-12-04T04:13:51;110.40;;;40.42;;
24145;SDS011;12308;50.948;4.706;2022-12-04T04:16:37;113.80;;;40.88;;
24145;SDS011;12308;50.948;4.706;2022-12-04T04:19:27;113.22;;;41.70;;
24145;SDS011;12308;50.948;4.706;2022-12-04T04:22:14;127.80;;;42.50;;
24145;SDS011;12308;50.948;4.706;2022-12-04T04:25:06;117.97;;;41.78;;
24145;SDS011;12308;50.948;4.706;2022-12-04T04:27:35;122.63;;;43.10;;
24145;SDS011;12308;50.948;4.706;2022-12-04T04:30:00;112.45;;;41.50;;
24145;SDS011;12308;50.948;4.706;2022-12-04T04:32:40;116.38;;;42.65;;
24145;SDS011;12308;50.948;4.706;2022-12-04T04:35:18;120.82;;;43.15;;
24145;SDS011;12308;50.948;4.706;2022-12-04T04:51:03;125.95;;;41.97;;
24145;SDS011;12308;50.948;4.706;2022-12-04T04:53:35;123.60;;;42.88;;
24145;SDS011;12308;50.948;4.706;2022-12-04T04:56:04;126.63;;;43.30;;
24145;SDS011;12308;50.948;4.706;2022-12-04T04:58:31;124.80;;;43.90;;
24145;SDS011;12308;50.948;4.706;2022-12-04T05:01:00;123.82;;;44.20;;
24145;SDS011;12308;50.948;4.706;2022-12-04T05:03:29;120.05;;;42.95;;
24145;SDS011;12308;50.948;4.706;2022-12-04T05:05:55;128.73;;;44.38;;
24145;SDS011;12308;50.948;4.706;2022-12-04T05:08:21;127.10;;;46.33;;
24145;SDS011;12308;50.948;4.706;2022-12-04T05:10:47;125.65;;;43.50;;
24145;SDS011;12308;50.948;4.706;2022-12-04T05:13:13;122.38;;;45.03;;
24145;SDS011;12308;50.948;4.706;2022-12-04T05:15:40;123.13;;;43.13;;
24145;SDS011;12308;50.948;4.706;2022-12-04T05:18:06;120.70;;;42.72;;
24145;SDS011;12308;50.948;4.706;2022-12-04T05:20:32;121.72;;;43.95;;
24145;SDS011;12308;50.948;4.706;2022-12-04T05:22:58;120.85;;;43.88;;
24145;SDS011;12308;50.948;4.706;2022-12-04T05:25:24;126.65;;;45.55;;
24145;SDS011;12308;50.948;4.706;2022-12-04T05:27:50;135.18;;;45.72;;
24145;SDS011;12308;50.948;4.706;2022-12-04T05:30:15;129.75;;;44.40;;
24145;SDS011;12308;50.948;4.706;2022-12-04T05:32:41;120.45;;;44.33;;
24145;SDS011;12308;50.948;4.706;2022-12-04T05:35:07;127.88;;;44.60;;
24145;SDS011;12308;50.948;4.706;2022-12-04T05:37:36;124.25;;;44.80;;
24145;SDS011;12308;50.948;4.706;2022-12-04T05:40:04;127.28;;;44.03;;
24145;SDS011;12308;50.948;4.706;2022-12-04T05:42:31;118.63;;;43.45;;
24145;SDS011;12308;50.948;4.706;2022-12-04T05:44:56;120.78;;;43.58;;
24145;SDS011;12308;50.948;4.706;2022-12-04T05:47:22;124.82;;;43.83;;
24145;SDS011;12308;50.948;4.706;2022-12-04T05:49:48;128.80;;;46.05;;
24145;SDS011;12308;50.948;4.706;2022-12-04T05:52:14;122.05;;;44.60;;
24145;SDS011;12308;50.948;4.706;2022-12-04T05:54:39;130.25;;;46.75;;
24145;SDS011;12308;50.948;4.706;2022-12-04T05:57:05;124.28;;;44.08;;
24145;SDS011;12308;50.948;4.706;2022-12-04T05:59:31;128.95;;;45.80;;
24145;SDS011;12308;50.948;4.706;2022-12-04T06:01:56;126.50;;;44.95;;
24145;SDS011;12308;50.948;4.706;2022-12-04T06:04:22;126.10;;;43.65;;
24145;SDS011;12308;50.948;4.706;2022-12-04T06:06:49;127.90;;;44.08;;
24145;SDS011;12308;50.948;4.706;2022-12-04T06:09:14;123.60;;;43.35;;
24145;SDS011;12308;50.948;4.706;2022-12-04T06:11:41;126.80;;;43.83;;
24145;SDS011;12308;50.948;4.706;2022-12-04T06:14:08;124.78;;;45.03;;
24145;SDS011;12308;50.948;4.706;2022-12-04T06:16:37;124.50;;;43.78;;
24145;SDS011;12308;50.948;4.706;2022-12-04T06:19:06;122.15;;;44.00;;
24145;SDS011;12308;50.948;4.706;2022-12-04T06:21:37;120.55;;;44.45;;
24145;SDS011;12308;50.948;4.706;2022-12-04T06:24:04;123.82;;;44.25;;
24145;SDS011;12308;50.948;4.706;2022-12-04T06:26:31;118.30;;;43.22;;
24145;SDS011;12308;50.948;4.706;2022-12-04T06:28:57;122.82;;;44.40;;
24145;SDS011;12308;50.948;4.706;2022-12-04T06:31:25;128.93;;;46.33;;
24145;SDS011;12308;50.948;4.706;2022-12-04T06:33:53;122.03;;;44.70;;
24145;SDS011;12308;50.948;4.706;2022-12-04T06:36:20;123.30;;;44.40;;
24145;SDS011;12308;50.948;4.706;2022-12-04T06:38:46;122.53;;;43.65;;
24145;SDS011;12308;50.948;4.706;2022-12-04T06:41:13;128.50;;;44.80;;
24145;SDS011;12308;50.948;4.706;2022-12-04T06:43:42;128.68;;;46.75;;
24145;SDS011;12308;50.948;4.706;2022-12-04T06:46:21;120.65;;;44.17;;
24145;SDS011;12308;50.948;4.706;2022-12-04T06:48:52;128.23;;;45.83;;
24145;SDS011;12308;50.948;4.706;2022-12-04T06:51:20;127.20;;;44.58;;
24145;SDS011;12308;50.948;4.706;2022-12-04T06:53:48;123.03;;;43.58;;
24145;SDS011;12308;50.948;4.706;2022-12-04T06:56:15;121.90;;;45.25;;
24145;SDS011;12308;50.948;4.706;2022-12-04T06:58:43;125.25;;;45.50;;
24145;SDS011;12308;50.948;4.706;2022-12-04T07:01:10;117.63;;;43.67;;
24145;SDS011;12308;50.948;4.706;2022-12-04T07:03:37;122.13;;;43.83;;
24145;SDS011;12308;50.948;4.706;2022-12-04T07:08:50;124.95;;;44.90;;
24145;SDS011;12308;50.948;4.706;2022-12-04T07:11:22;119.07;;;42.83;;
24145;SDS011;12308;50.948;4.706;2022-12-04T07:13:48;114.97;;;43.00;;
24145;SDS011;12308;50.948;4.706;2022-12-04T07:16:19;119.28;;;43.95;;
24145;SDS011;12308;50.948;4.706;2022-12-04T07:18:46;121.63;;;44.15;;
24145;SDS011;12308;50.948;4.706;2022-12-04T07:21:18;122.97;;;45.25;;
24145;SDS011;12308;50.948;4.706;2022-12-04T07:23:52;118.35;;;43.95;;
24145;SDS011;12308;50.948;4.706;2022-12-04T07:26:20;129.25;;;47.58;;
24145;SDS011;12308;50.948;4.706;2022-12-04T07:28:47;125.55;;;46.05;;
24145;SDS011;12308;50.948;4.706;2022-12-04T07:31:14;121.13;;;46.20;;
24145;SDS011;12308;50.948;4.706;2022-12-04T07:33:41;123.65;;;46.05;;
24145;SDS011;12308;50.948;4.706;2022-12-04T07:36:08;123.25;;;44.67;;
24145;SDS011;12308;50.948;4.706;2022-12-04T07:38:35;120.70;;;44.65;;
24145;SDS011;12308;50.948;4.706;2022-12-04T07:41:02;127.68;;;45.42;;
24145;SDS011;12308;50.948;4.706;2022-12-04T07:43:29;121.57;;;44.28;;
24145;SDS011;12308;50.948;4.706;2022-12-04T07:45:55;120.78;;;44.17;;
24145;SDS011;12308;50.948;4.706;2022-12-04T07:48:21;122.72;;;43.92;;
24145;SDS011;12308;50.948;4.706;2022-12-04T07:50:47;125.00;;;47.28;;
24145;SDS011;12308;50.948;4.706;2022-12-04T07:53:13;125.65;;;43.88;;
24145;SDS011;12308;50.948;4.706;2022-12-04T07:55:39;126.80;;;43.95;;
24145;SDS011;12308;50.948;4.706;2022-12-04T07:58:05;127.47;;;43.88;;
24145;SDS011;12308;50.948;4.706;2022-12-04T08:00:31;128.45;;;46.40;;
24145;SDS011;12308;50.948;4.706;2022-12-04T08:02:56;128.30;;;45.30;;
24145;SDS011;12308;50.948;4.706;2022-12-04T08:05:22;123.93;;;45.58;;
24145;SDS011;12308;50.948;4.706;2022-12-04T08:07:48;124.47;;;46.53;;
24145;SDS011;12308;50.948;4.706;2022-12-04T08:10:14;124.63;;;47.45;;
24145;SDS011;12308;50.948;4.706;2022-12-04T08:12:39;124.38;;;46.10;;
24145;SDS011;12308;50.948;4.706;2022-12-04T08:15:05;126.55;;;45.85;;
24145;SDS011;12308;50.948;4.706;2022-12-04T08:17:32;130.77;;;47.92;;
24145;SDS011;12308;50.948;4.706;2022-12-04T08:19:57;128.60;;;45.50;;
24145;SDS011;12308;50.948;4.706;2022-12-04T08:22:23;125.70;;;46.20;;
24145;SDS011;12308;50.948;4.706;2022-12-04T08:24:49;128.20;;;45.08;;
24145;SDS011;12308;50.948;4.706;2022-12-04T08:27:15;125.75;;;45.60;;
24145;SDS011;12308;50.948;4.706;2022-12-04T08:29:40;127.10;;;45.60;;
24145;SDS011;12308;50.948;4.706;2022-12-04T08:32:06;124.43;;;47.10;;
24145;SDS011;12308;50.948;4.706;2022-12-04T08:34:32;136.88;;;48.35;;
24145;SDS011;12308;50.948;4.706;2022-12-04T08:36:58;128.90;;;47.13;;
24145;SDS011;12308;50.948;4.706;2022-12-04T08:39:23;122.38;;;45.03;;
24145;SDS011;12308;50.948;4.706;2022-12-04T08:41:50;127.50;;;47.47;;
24145;SDS011;12308;50.948;4.706;2022-12-04T08:44:16;124.13;;;46.60;;
24145;SDS011;12308;50.948;4.706;2022-12-04T08:46:41;124.10;;;47.55;;
24145;SDS011;12308;50.948;4.706;2022-12-04T08:49:07;149.07;;;54.67;;
24145;SDS011;12308;50.948;4.706;2022-12-04T08:51:33;133.95;;;48.40;;
24145;SDS011;12308;50.948;4.706;2022-12-04T08:54:00;123.15;;;45.88;;
24145;SDS011;12308;50.948;4.706;2022-12-04T08:56:28;112.95;;;44.80;;
24145;SDS011;12308;50.948;4.706;2022-12-04T08:58:55;122.60;;;47.45;;
24145;SDS011;12308;50.948;4.706;2022-12-04T09:01:21;114.55;;;44.30;;
24145;SDS011;12308;50.948;4.706;2022-12-04T09:03:48;117.55;;;45.67;;
24145;SDS011;12308;50.948;4.706;2022-12-04T09:06:14;111.97;;;42.75;;
24145;SDS011;12308;50.948;4.706;2022-12-04T09:08:40;114.53;;;44.05;;
24145;SDS011;12308;50.948;4.706;2022-12-04T09:11:10;117.18;;;44.05;;
24145;SDS011;12308;50.948;4.706;2022-12-04T09:13:41;112.75;;;43.63;;
24145;SDS011;12308;50.948;4.706;2022-12-04T09:16:08;113.47;;;43.72;;
24145;SDS011;12308;50.948;4.706;2022-12-04T09:18:39;112.22;;;43.85;;
24145;SDS011;12308;50.948;4.706;2022-12-04T09:21:06;112.32;;;40.92;;
24145;SDS011;12308;50.948;4.706;2022-12-04T09:23:34;111.68;;;43.65;;
24145;SDS011;12308;50.948;4.706;2022-12-04T09:26:00;106.10;;;41.38;;
24145;SDS011;12308;50.948;4.706;2022-12-04T09:28:26;110.03;;;42.47;;
24145;SDS011;12308;50.948;4.706;2022-12-04T09:30:56;102.43;;;39.67;;
24145;SDS011;12308;50.948;4.706;2022-12-04T09:33:23;106.25;;;40.40;;
24145;SDS011;12308;50.948;4.706;2022-12-04T09:35:49;97.03;;;37.15;;
24145;SDS011;12308;50.948;4.706;2022-12-04T09:38:14;104.63;;;39.72;;
24145;SDS011;12308;50.948;4.706;2022-12-04T09:40:44;99.40;;;37.00;;
24145;SDS011;12308;50.948;4.706;2022-12-04T09:43:28;102.63;;;38.42;;
24145;SDS011;12308;50.948;4.706;2022-12-04T09:46:21;102.43;;;37.85;;
24145;SDS011;12308;50.948;4.706;2022-12-04T09:49:02;96.80;;;37.90;;
24145;SDS011;12308;50.948;4.706;2022-12-04T09:51:40;100.95;;;38.63;;
24145;SDS011;12308;50.948;4.706;2022-12-04T09:54:12;93.95;;;36.42;;
24145;SDS011;12308;50.948;4.706;2022-12-04T09:56:41;95.68;;;37.80;;
24145;SDS011;12308;50.948;4.706;2022-12-04T09:59:15;98.53;;;38.70;;
24145;SDS011;12308;50.948;4.706;2022-12-04T10:01:47;91.05;;;36.35;;
24145;SDS011;12308;50.948;4.706;2022-12-04T10:04:17;89.38;;;36.13;;
24145;SDS011;12308;50.948;4.706;2022-12-04T10:09:26;88.57;;;34.80;;
24145;SDS011;12308;50.948;4.706;2022-12-04T10:15:25;95.95;;;36.97;;
24145;SDS011;12308;50.948;4.706;2022-12-04T10:23:11;73.25;;;30.25;;
24145;SDS011;12308;50.948;4.706;2022-12-04T10:25:52;70.05;;;30.80;;
24145;SDS011;12308;50.948;4.706;2022-12-04T10:28:30;70.95;;;30.80;;
24145;SDS011;12308;50.948;4.706;2022-12-04T10:31:01;65.60;;;29.40;;
24145;SDS011;12308;50.948;4.706;2022-12-04T10:36:18;65.50;;;28.40;;
24145;SDS011;12308;50.948;4.706;2022-12-04T10:38:47;72.03;;;30.55;;
24145;SDS011;12308;50.948;4.706;2022-12-04T10:43:47;66.65;;;28.65;;
24145;SDS011;12308;50.948;4.706;2022-12-04T10:46:23;75.15;;;30.48;;
24145;SDS011;12308;50.948;4.706;2022-12-04T10:48:53;66.20;;;30.13;;
24145;SDS011;12308;50.948;4.706;2022-12-04T10:51:36;66.88;;;29.80;;
24145;SDS011;12308;50.948;4.706;2022-12-04T10:54:37;70.47;;;29.60;;
24145;SDS011;12308;50.948;4.706;2022-12-04T10:57:03;75.80;;;30.63;;
24145;SDS011;12308;50.948;4.706;2022-12-04T10:59:30;67.32;;;28.90;;
24145;SDS011;12308;50.948;4.706;2022-12-04T11:04:27;70.55;;;28.23;;
24145;SDS011;12308;50.948;4.706;2022-12-04T11:07:04;65.50;;;28.75;;
24145;SDS011;12308;50.948;4.706;2022-12-04T11:09:43;67.47;;;29.65;;
24145;SDS011;12308;50.948;4.706;2022-12-04T11:12:29;71.00;;;29.48;;
24145;SDS011;12308;50.948;4.706;2022-12-04T11:15:07;72.60;;;31.13;;
24145;SDS011;12308;50.948;4.706;2022-12-04T11:17:38;65.72;;;30.48;;
24145;SDS011;12308;50.948;4.706;2022-12-04T11:20:05;66.30;;;29.73;;
24145;SDS011;12308;50.948;4.706;2022-12-04T11:22:47;60.80;;;28.55;;
24145;SDS011;12308;50.948;4.706;2022-12-04T11:25:21;62.10;;;27.80;;
24145;SDS011;12308;50.948;4.706;2022-12-04T11:27:50;69.72;;;28.77;;
24145;SDS011;12308;50.948;4.706;2022-12-04T11:30:20;69.88;;;29.35;;
24145;SDS011;12308;50.948;4.706;2022-12-04T11:32:53;60.63;;;26.85;;
24145;SDS011;12308;50.948;4.706;2022-12-04T11:35:20;58.97;;;27.63;;
24145;SDS011;12308;50.948;4.706;2022-12-04T11:38:11;61.60;;;26.55;;
24145;SDS011;12308;50.948;4.706;2022-12-04T11:40:38;55.35;;;25.48;;
24145;SDS011;12308;50.948;4.706;2022-12-04T11:43:14;56.85;;;26.50;;
24145;SDS011;12308;50.948;4.706;2022-12-04T11:45:52;55.92;;;24.88;;
24145;SDS011;12308;50.948;4.706;2022-12-04T11:48:42;53.92;;;24.83;;
24145;SDS011;12308;50.948;4.706;2022-12-04T11:53:59;54.97;;;25.95;;
24145;SDS011;12308;50.948;4.706;2022-12-04T11:56:40;53.33;;;22.63;;
24145;SDS011;12308;50.948;4.706;2022-12-04T11:59:31;51.17;;;25.25;;
24145;SDS011;12308;50.948;4.706;2022-12-04T12:10:42;42.83;;;20.73;;
24145;SDS011;12308;50.948;4.706;2022-12-04T12:13:26;48.45;;;22.83;;
24145;SDS011;12308;50.948;4.706;2022-12-04T12:16:15;47.50;;;21.90;;
24145;SDS011;12308;50.948;4.706;2022-12-04T12:24:23;41.75;;;19.10;;
24145;SDS011;12308;50.948;4.706;2022-12-04T12:32:01;40.88;;;20.13;;
24145;SDS011;12308;50.948;4.706;2022-12-04T12:37:15;44.03;;;20.83;;
24145;SDS011;12308;50.948;4.706;2022-12-04T12:40:14;46.95;;;22.40;;
24145;SDS011;12308;50.948;4.706;2022-12-04T12:42:48;47.22;;;23.00;;
24145;SDS011;12308;50.948;4.706;2022-12-04T12:48:08;42.88;;;22.23;;
24145;SDS011;12308;50.948;4.706;2022-12-04T12:50:45;49.20;;;24.80;;
24145;SDS011;12308;50.948;4.706;2022-12-04T12:53:17;56.38;;;28.08;;
24145;SDS011;12308;50.948;4.706;2022-12-04T12:58:25;70.88;;;35.00;;
24145;SDS011;12308;50.948;4.706;2022-12-04T13:01:12;71.80;;;36.47;;
24145;SDS011;12308;50.948;4.706;2022-12-04T13:04:03;72.75;;;36.92;;
24145;SDS011;12308;50.948;4.706;2022-12-04T13:06:36;74.95;;;37.28;;
24145;SDS011;12308;50.948;4.706;2022-12-04T13:09:20;68.47;;;34.72;;
24145;SDS011;12308;50.948;4.706;2022-12-04T13:11:49;66.38;;;32.75;;
24145;SDS011;12308;50.948;4.706;2022-12-04T13:14:21;58.17;;;30.40;;
24145;SDS011;12308;50.948;4.706;2022-12-04T13:16:55;60.72;;;31.00;;
24145;SDS011;12308;50.948;4.706;2022-12-04T13:19:27;59.38;;;30.10;;
24145;SDS011;12308;50.948;4.706;2022-12-04T13:36:13;60.23;;;29.93;;
24145;SDS011;12308;50.948;4.706;2022-12-04T13:42:23;69.40;;;32.50;;
24145;SDS011;12308;50.948;4.706;2022-12-04T13:44:54;61.17;;;30.25;;
24145;SDS011;12308;50.948;4.706;2022-12-04T13:47:26;69.68;;;32.95;;
24145;SDS011;12308;50.948;4.706;2022-12-04T13:52:43;67.80;;;31.05;;
24145;SDS011;12308;50.948;4.706;2022-12-04T13:58:36;72.60;;;34.60;;
24145;SDS011;12308;50.948;4.706;2022-12-04T14:00:43;72.07;;;34.13;;
24145;SDS011;12308;50.948;4.706;2022-12-04T14:03:28;72.70;;;35.53;;
24145;SDS011;12308;50.948;4.706;2022-12-04T14:06:22;75.38;;;34.88;;
24145;SDS011;12308;50.948;4.706;2022-12-04T14:08:57;66.55;;;33.63;;
24145;SDS011;12308;50.948;4.706;2022-12-04T14:11:25;69.28;;;34.00;;
24145;SDS011;12308;50.948;4.706;2022-12-04T14:13:55;61.88;;;31.40;;
24145;SDS011;12308;50.948;4.706;2022-12-04T14:18:54;62.97;;;31.52;;
24145;SDS011;12308;50.948;4.706;2022-12-04T14:21:22;58.35;;;30.20;;
24145;SDS011;12308;50.948;4.706;2022-12-04T14:23:48;57.92;;;27.52;;
24145;SDS011;12308;50.948;4.706;2022-12-04T14:29:06;52.55;;;26.95;;
24145;SDS011;12308;50.948;4.706;2022-12-04T14:31:55;62.58;;;29.98;;
24145;SDS011;12308;50.948;4.706;2022-12-04T14:34:27;59.00;;;28.63;;
24145;SDS011;12308;50.948;4.706;2022-12-04T14:36:55;57.78;;;27.42;;
24145;SDS011;12308;50.948;4.706;2022-12-04T14:39:41;56.38;;;27.63;;
24145;SDS011;12308;50.948;4.706;2022-12-04T14:45:16;56.35;;;28.00;;
24145;SDS011;12308;50.948;4.706;2022-12-04T14:48:22;58.55;;;28.35;;
24145;SDS011;12308;50.948;4.706;2022-12-04T14:51:12;61.65;;;30.83;;
24145;SDS011;12308;50.948;4.706;2022-12-04T14:54:00;62.35;;;31.48;;
24145;SDS011;12308;50.948;4.706;2022-12-04T14:59:44;61.58;;;31.38;;
24145;SDS011;12308;50.948;4.706;2022-12-04T15:02:46;71.18;;;32.13;;
24145;SDS011;12308;50.948;4.706;2022-12-04T15:05:11;63.92;;;31.95;;
24145;SDS011;12308;50.948;4.706;2022-12-04T15:07:50;62.92;;;31.45;;
24145;SDS011;12308;50.948;4.706;2022-12-04T15:10:23;67.30;;;31.63;;
24145;SDS011;12308;50.948;4.706;2022-12-04T15:13:09;60.90;;;30.75;;
24145;SDS011;12308;50.948;4.706;2022-12-04T15:15:35;64.57;;;31.58;;
24145;SDS011;12308;50.948;4.706;2022-12-04T15:18:10;58.83;;;32.08;;
24145;SDS011;12308;50.948;4.706;2022-12-04T15:20:52;64.20;;;31.02;;
24145;SDS011;12308;50.948;4.706;2022-12-04T15:26:01;63.67;;;31.38;;
24145;SDS011;12308;50.948;4.706;2022-12-04T15:28:40;62.97;;;32.35;;
24145;SDS011;12308;50.948;4.706;2022-12-04T15:31:16;66.15;;;31.73;;
24145;SDS011;12308;50.948;4.706;2022-12-04T15:33:46;63.75;;;32.40;;
24145;SDS011;12308;50.948;4.706;2022-12-04T15:36:18;67.13;;;32.27;;
24145;SDS011;12308;50.948;4.706;2022-12-04T15:39:12;66.18;;;32.72;;
24145;SDS011;12308;50.948;4.706;2022-12-04T15:41:42;68.13;;;33.50;;
24145;SDS011;12308;50.948;4.706;2022-12-04T15:44:26;66.07;;;33.25;;
24145;SDS011;12308;50.948;4.706;2022-12-04T15:46:57;65.38;;;32.22;;
24145;SDS011;12308;50.948;4.706;2022-12-04T15:49:25;62.28;;;32.13;;
24145;SDS011;12308;50.948;4.706;2022-12-04T15:52:02;61.83;;;31.13;;
24145;SDS011;12308;50.948;4.706;2022-12-04T15:54:40;61.22;;;31.20;;
24145;SDS011;12308;50.948;4.706;2022-12-04T15:57:21;64.57;;;30.88;;
24145;SDS011;12308;50.948;4.706;2022-12-04T15:59:55;59.25;;;30.23;;
24145;SDS011;12308;50.948;4.706;2022-12-04T16:02:32;61.75;;;29.30;;
24145;SDS011;12308;50.948;4.706;2022-12-04T16:05:13;59.75;;;30.85;;
24145;SDS011;12308;50.948;4.706;2022-12-04T16:07:56;62.08;;;29.30;;
24145;SDS011;12308;50.948;4.706;2022-12-04T16:10:25;58.63;;;29.55;;
24145;SDS011;12308;50.948;4.706;2022-12-04T16:12:56;55.88;;;30.10;;
24145;SDS011;12308;50.948;4.706;2022-12-04T16:15:29;59.92;;;30.52;;
24145;SDS011;12308;50.948;4.706;2022-12-04T16:18:04;60.28;;;31.27;;
24145;SDS011;12308;50.948;4.706;2022-12-04T16:20:33;63.35;;;31.40;;
24145;SDS011;12308;50.948;4.706;2022-12-04T16:23:01;57.50;;;30.23;;
24145;SDS011;12308;50.948;4.706;2022-12-04T16:25:27;58.72;;;29.40;;
24145;SDS011;12308;50.948;4.706;2022-12-04T16:27:59;57.33;;;29.50;;
24145;SDS011;12308;50.948;4.706;2022-12-04T16:30:28;63.28;;;30.08;;
24145;SDS011;12308;50.948;4.706;2022-12-04T16:32:57;59.45;;;30.23;;
24145;SDS011;12308;50.948;4.706;2022-12-04T16:35:23;62.53;;;31.15;;
24145;SDS011;12308;50.948;4.706;2022-12-04T16:37:49;61.00;;;31.60;;
24145;SDS011;12308;50.948;4.706;2022-12-04T16:40:15;60.95;;;30.98;;
24145;SDS011;12308;50.948;4.706;2022-12-04T16:42:40;63.78;;;31.80;;
24145;SDS011;12308;50.948;4.706;2022-12-04T16:45:30;60.45;;;30.23;;
24145;SDS011;12308;50.948;4.706;2022-12-04T16:47:57;61.30;;;31.10;;
24145;SDS011;12308;50.948;4.706;2022-12-04T16:50:24;64.13;;;33.05;;
24145;SDS011;12308;50.948;4.706;2022-12-04T16:52:51;65.82;;;31.73;;
24145;SDS011;12308;50.948;4.706;2022-12-04T16:55:25;75.72;;;36.35;;
24145;SDS011;12308;50.948;4.706;2022-12-04T16:57:55;65.78;;;32.00;;
24145;SDS011;12308;50.948;4.706;2022-12-04T17:00:20;68.28;;;33.40;;